Time;durP1;ratioP1;P1;durP2;ratioP2;P2;SDS_P1;SDS_P2;PMS_P1;PMS_P2;Temp;Humidity;BMP_temperature;BMP_pressure;BME280_temperature;BME280_humidity;BME280_pressure;Samples;Min_cycle;Max_cycle;Signal;HPM_P1;HPM_P2
2023/04/22 00:01:20;;;;;;;6.50;2.75;;;12.10;99.90;;;;;;5009738;28;20380;-78
2023/04/22 00:03:46;;;;;;;5.00;3.00;;;12.10;99.90;;;;;;4999166;28;20306;-79
2023/04/22 00:06:12;;;;;;;7.20;3.25;;;12.00;99.90;;;;;;5010341;28;20506;-78
2023/04/22 00:08:37;;;;;;;4.80;2.58;;;12.10;99.90;;;;;;5000572;28;20037;-78
2023/04/22 00:11:03;;;;;;;4.78;2.42;;;12.00;99.90;;;;;;5006041;28;20443;-79
2023/04/22 00:13:29;;;;;;;4.60;2.50;;;12.00;99.90;;;;;;5005315;28;20116;-79
2023/04/22 00:15:55;;;;;;;4.00;2.50;;;11.90;99.90;;;;;;5007213;28;20113;-79
2023/04/22 00:18:20;;;;;;;5.07;2.33;;;11.80;99.90;;;;;;5009518;28;20468;-78
2023/04/22 00:20:46;;;;;;;4.90;2.90;;;11.70;99.90;;;;;;5008425;28;20046;-79
2023/04/22 00:23:12;;;;;;;4.78;2.88;;;11.60;99.90;;;;;;5023787;28;20041;-79
2023/04/22 00:25:39;;;;;;;3.80;2.08;;;11.60;99.90;;;;;;5004264;28;20049;-79
2023/04/22 00:28:05;;;;;;;4.22;1.90;;;11.60;99.90;;;;;;5004446;28;20045;-79
2023/04/22 00:30:30;;;;;;;3.42;2.10;;;11.50;99.90;;;;;;5002912;28;20041;-79
2023/04/22 00:32:56;;;;;;;4.22;2.40;;;11.40;99.90;;;;;;5007210;28;20057;-79
2023/04/22 00:35:22;;;;;;;5.13;2.90;;;11.30;99.90;;;;;;5009481;28;20484;-78
2023/04/22 00:37:48;;;;;;;5.30;3.00;;;11.30;99.90;;;;;;5010612;28;20041;-78
2023/04/22 00:40:13;;;;;;;4.93;2.75;;;11.30;99.90;;;;;;5008417;28;20438;-79
2023/04/22 00:42:42;;;;;;;4.20;2.65;;;11.30;99.90;;;;;;5038320;28;20061;-78
2023/04/22 00:45:13;;;;;;;5.03;3.00;;;11.30;99.90;;;;;;4998464;28;20049;-78
2023/04/22 00:47:40;;;;;;;4.85;2.83;;;11.30;99.90;;;;;;5002586;28;20029;-79
2023/04/22 00:50:06;;;;;;;5.28;2.38;;;11.30;99.90;;;;;;5007052;28;20526;-79
2023/04/22 00:52:32;;;;;;;3.42;1.63;;;11.20;99.90;;;;;;5003185;28;20073;-79
2023/04/22 00:54:58;;;;;;;5.47;2.03;;;11.30;99.90;;;;;;5007428;28;20076;-79
2023/04/22 00:57:24;;;;;;;4.75;3.08;;;11.30;99.90;;;;;;5006832;28;20049;-79
2023/04/22 00:59:49;;;;;;;6.43;3.75;;;11.20;99.90;;;;;;5007528;28;20042;-78
2023/04/22 01:02:15;;;;;;;7.43;3.35;;;11.20;99.90;;;;;;5005027;28;20091;-79
2023/04/22 01:04:41;;;;;;;7.30;3.08;;;11.20;99.90;;;;;;5039317;28;20070;-79
2023/04/22 01:07:07;;;;;;;4.05;2.70;;;11.20;99.90;;;;;;5007306;28;20065;-79
2023/04/22 01:09:33;;;;;;;5.38;2.97;;;11.20;99.90;;;;;;5003026;28;20030;-79
2023/04/22 01:12:00;;;;;;;6.00;2.92;;;11.20;99.90;;;;;;5036135;28;20534;-79
2023/04/22 01:14:26;;;;;;;5.65;3.28;;;11.20;99.90;;;;;;5007027;28;20046;-79
2023/04/22 01:16:54;;;;;;;5.38;3.28;;;11.20;99.90;;;;;;5021754;28;20113;-79
2023/04/22 01:19:20;;;;;;;4.82;3.05;;;11.20;99.90;;;;;;5005958;28;20125;-78
2023/04/22 01:21:49;;;;;;;5.72;3.17;;;11.20;99.90;;;;;;5004916;28;20113;-78
2023/04/22 01:24:15;;;;;;;5.40;3.00;;;11.20;99.90;;;;;;5006298;28;20046;-79
2023/04/22 01:26:41;;;;;;;5.32;3.13;;;11.20;99.90;;;;;;5003759;28;20426;-79
2023/04/22 01:29:07;;;;;;;4.78;2.88;;;11.20;99.90;;;;;;5006872;28;20096;-79
2023/04/22 01:31:32;;;;;;;4.93;3.00;;;11.10;99.90;;;;;;5001116;28;20084;-78
2023/04/22 01:33:58;;;;;;;4.97;2.72;;;11.00;99.90;;;;;;5020817;28;20486;-79
2023/04/22 01:36:24;;;;;;;4.95;2.97;;;10.90;99.90;;;;;;4997321;28;20120;-79
2023/04/22 01:38:50;;;;;;;4.78;2.83;;;10.90;99.90;;;;;;5002231;28;20056;-78
2023/04/22 01:41:16;;;;;;;4.53;2.80;;;10.90;99.90;;;;;;5038005;28;20116;-79
2023/04/22 01:43:42;;;;;;;3.75;2.40;;;10.90;99.90;;;;;;5003118;28;20073;-78
2023/04/22 01:46:08;;;;;;;5.50;2.63;;;10.80;99.90;;;;;;5008298;28;20034;-79
2023/04/22 01:48:35;;;;;;;4.53;2.63;;;10.80;99.90;;;;;;5008053;28;20046;-79
2023/04/22 01:51:01;;;;;;;4.22;2.00;;;10.80;99.90;;;;;;4999059;28;20570;-79
2023/04/22 01:53:27;;;;;;;3.90;2.20;;;10.80;99.90;;;;;;4995675;28;20125;-78
2023/04/22 01:55:52;;;;;;;3.28;2.30;;;10.70;99.90;;;;;;5009039;28;20137;-78
2023/04/22 01:58:18;;;;;;;4.35;2.40;;;10.70;99.90;;;;;;4991292;28;20525;-79
2023/04/22 02:00:44;;;;;;;3.75;2.00;;;10.70;99.90;;;;;;4987548;28;20540;-78
2023/04/22 02:03:10;;;;;;;4.13;2.15;;;10.60;99.90;;;;;;5039236;28;20223;-78
2023/04/22 02:05:36;;;;;;;5.10;2.40;;;10.60;99.90;;;;;;5008505;28;20116;-79
2023/04/22 02:08:03;;;;;;;5.25;1.98;;;10.60;99.90;;;;;;5006563;28;20479;-78
2023/04/22 02:10:29;;;;;;;4.43;2.22;;;10.60;99.90;;;;;;5001501;28;20661;-78
2023/04/22 02:12:55;;;;;;;3.38;2.10;;;10.50;99.90;;;;;;4999030;28;20049;-79
2023/04/22 02:15:21;;;;;;;3.72;2.28;;;10.50;99.90;;;;;;4998772;28;20034;-78
2023/04/22 02:17:47;;;;;;;3.70;2.30;;;10.40;99.90;;;;;;5010544;28;20034;-78
2023/04/22 02:20:13;;;;;;;2.95;1.80;;;10.40;99.90;;;;;;5028563;28;20049;-78
2023/04/22 02:22:40;;;;;;;3.38;1.85;;;10.30;99.90;;;;;;5008227;28;20041;-78
2023/04/22 02:25:07;;;;;;;3.28;2.17;;;10.30;99.90;;;;;;5004222;28;20042;-79
2023/04/22 02:27:33;;;;;;;3.20;2.20;;;10.30;99.90;;;;;;5035704;28;20046;-78
2023/04/22 02:29:58;;;;;;;5.20;2.38;;;10.30;99.90;;;;;;5007258;28;20117;-78
2023/04/22 02:32:24;;;;;;;4.85;2.80;;;10.20;99.90;;;;;;5013779;28;20407;-78
2023/04/22 02:34:50;;;;;;;5.55;3.00;;;10.20;99.90;;;;;;5013015;28;20076;-78
2023/04/22 02:37:16;;;;;;;6.05;3.28;;;10.30;99.90;;;;;;5042203;28;20501;-78
2023/04/22 02:39:41;;;;;;;8.23;2.50;;;10.30;99.90;;;;;;5035889;28;20049;-79
2023/04/22 02:42:07;;;;;;;6.88;3.58;;;10.30;99.90;;;;;;5006774;28;20133;-79
2023/04/22 02:44:33;;;;;;;6.20;3.00;;;10.20;99.90;;;;;;5042507;28;20038;-78
2023/04/22 02:46:59;;;;;;;8.52;3.00;;;10.20;99.90;;;;;;5012283;28;20369;-78
2023/04/22 02:49:24;;;;;;;6.53;3.17;;;10.10;99.90;;;;;;5012805;28;20480;-78
2023/04/22 02:51:50;;;;;;;5.65;3.20;;;10.10;99.90;;;;;;5010051;28;20041;-79
2023/04/22 02:54:15;;;;;;;5.82;3.25;;;10.00;99.90;;;;;;5007986;28;20165;-79
2023/04/22 02:56:41;;;;;;;5.25;3.05;;;10.00;99.90;;;;;;5004682;28;20063;-78
2023/04/22 02:59:06;;;;;;;4.95;2.97;;;10.00;99.90;;;;;;5005390;28;20126;-79
2023/04/22 03:01:32;;;;;;;3.88;2.65;;;10.00;99.90;;;;;;5012808;28;20492;-78
2023/04/22 03:03:58;;;;;;;4.28;2.72;;;10.00;99.90;;;;;;5012370;28;20492;-78
2023/04/22 03:06:23;;;;;;;3.70;1.95;;;10.00;99.90;;;;;;5009177;28;20121;-79
2023/04/22 03:08:49;;;;;;;3.80;2.17;;;10.00;99.90;;;;;;5008330;28;20036;-78
2023/04/22 03:11:15;;;;;;;5.28;2.28;;;9.90;99.90;;;;;;5009639;28;20050;-78
2023/04/22 03:13:40;;;;;;;8.23;2.30;;;9.80;99.90;;;;;;5007311;28;20057;-78
2023/04/22 03:16:06;;;;;;;3.58;1.90;;;9.80;99.90;;;;;;5005369;28;20073;-78
2023/04/22 03:18:32;;;;;;;4.30;2.22;;;9.80;99.90;;;;;;5009291;28;20109;-78
2023/04/22 03:20:57;;;;;;;3.65;2.20;;;9.70;99.90;;;;;;5005968;28;20081;-78
2023/04/22 03:23:23;;;;;;;2.58;1.73;;;9.70;99.90;;;;;;5010264;28;20038;-78
2023/04/22 03:25:49;;;;;;;2.38;1.50;;;9.70;99.90;;;;;;5045316;28;20057;-78
2023/04/22 03:28:14;;;;;;;3.88;2.35;;;9.60;99.90;;;;;;5007749;28;20034;-78
2023/04/22 03:30:40;;;;;;;4.68;2.45;;;9.50;99.90;;;;;;5039809;28;20506;-78
2023/04/22 03:33:05;;;;;;;3.08;2.17;;;9.50;99.90;;;;;;5023869;28;20049;-79
2023/04/22 03:35:31;;;;;;;4.50;2.72;;;9.50;99.90;;;;;;4990528;28;20129;-78
2023/04/22 03:37:57;;;;;;;4.63;2.78;;;9.50;99.90;;;;;;5006530;28;20040;-79
2023/04/22 03:40:22;;;;;;;5.50;3.40;;;9.50;99.90;;;;;;5007838;28;20046;-79
2023/04/22 03:42:48;;;;;;;4.95;3.25;;;9.50;99.90;;;;;;5003527;28;20034;-79
2023/04/22 03:45:14;;;;;;;6.45;3.55;;;9.40;99.90;;;;;;5003380;28;20054;-79
2023/04/22 03:47:39;;;;;;;5.47;3.05;;;9.40;99.90;;;;;;5005679;28;20037;-79
2023/04/22 03:50:05;;;;;;;5.28;3.38;;;9.40;99.90;;;;;;5007631;28;20530;-79
2023/04/22 03:52:31;;;;;;;6.50;3.35;;;9.40;99.90;;;;;;5031032;28;20458;-79
2023/04/22 03:54:56;;;;;;;6.10;3.63;;;9.40;99.90;;;;;;5000235;28;20037;-79
2023/04/22 03:57:22;;;;;;;7.07;3.00;;;9.40;99.90;;;;;;5005481;28;20089;-79
2023/04/22 03:59:48;;;;;;;5.63;3.42;;;9.40;99.90;;;;;;5005899;28;20045;-79
2023/04/22 04:02:13;;;;;;;4.85;2.63;;;9.40;99.90;;;;;;5010940;28;20121;-79
2023/04/22 04:04:39;;;;;;;5.43;2.67;;;9.40;99.90;;;;;;5009109;28;20460;-79
2023/04/22 04:07:06;;;;;;;3.70;2.25;;;9.30;99.90;;;;;;5008541;28;20049;-79
2023/04/22 04:09:32;;;;;;;3.22;2.22;;;9.20;99.90;;;;;;5007731;28;20419;-79
2023/04/22 04:11:58;;;;;;;3.83;2.03;;;9.10;99.90;;;;;;4995249;28;1235810;-80
2023/04/22 04:14:23;;;;;;;6.25;2.53;;;9.10;99.90;;;;;;5005224;28;20042;-80
2023/04/22 04:16:49;;;;;;;3.10;2.15;;;9.10;99.90;;;;;;5005281;28;20038;-79
2023/04/22 04:19:14;;;;;;;3.28;2.20;;;9.10;99.90;;;;;;5009196;28;20180;-79
2023/04/22 04:21:41;;;;;;;2.75;1.50;;;9.00;99.90;;;;;;4991536;28;20388;-79
2023/04/22 04:24:06;;;;;;;3.17;1.80;;;9.00;99.90;;;;;;4997488;28;20046;-80
2023/04/22 04:26:33;;;;;;;3.45;1.90;;;9.00;99.90;;;;;;5009237;28;20046;-80
2023/04/22 04:29:00;;;;;;;2.88;1.90;;;9.00;99.90;;;;;;5001863;28;20049;-79
2023/04/22 04:31:27;;;;;;;2.58;1.77;;;9.00;99.90;;;;;;5009055;28;20046;-80
2023/04/22 04:33:52;;;;;;;2.97;1.83;;;9.00;99.90;;;;;;5010120;28;20492;-80
2023/04/22 04:36:18;;;;;;;5.25;2.17;;;8.90;99.90;;;;;;5022855;28;20053;-79
2023/04/22 04:38:46;;;;;;;3.28;2.10;;;8.90;99.90;;;;;;5009971;28;20105;-79
2023/04/22 04:41:13;;;;;;;4.80;2.53;;;8.90;99.90;;;;;;5006747;28;20073;-79
2023/04/22 04:43:39;;;;;;;5.93;2.78;;;8.90;99.90;;;;;;5007821;28;20193;-79
2023/04/22 04:46:05;;;;;;;4.60;2.47;;;8.90;99.90;;;;;;5002312;28;20044;-79
2023/04/22 04:48:34;;;;;;;3.88;2.53;;;9.00;99.90;;;;;;5008287;28;20037;-80
2023/04/22 04:51:00;;;;;;;7.32;2.80;;;9.00;99.90;;;;;;5006510;28;20042;-79
2023/04/22 04:53:25;;;;;;;5.07;3.10;;;9.00;99.90;;;;;;5006428;28;20041;-79
2023/04/22 04:55:51;;;;;;;4.05;2.17;;;9.00;99.90;;;;;;5037171;28;20054;-80
2023/04/22 04:58:17;;;;;;;4.88;2.72;;;9.00;99.90;;;;;;5008197;28;20084;-79
2023/04/22 05:00:42;;;;;;;5.57;2.88;;;9.00;99.90;;;;;;5001378;28;20048;-79
2023/04/22 05:03:08;;;;;;;6.88;3.38;;;9.00;99.90;;;;;;5008680;28;20034;-80
2023/04/22 05:05:34;;;;;;;5.47;3.40;;;9.00;99.90;;;;;;5004169;28;20042;-79
2023/04/22 05:08:00;;;;;;;6.00;3.70;;;9.10;99.90;;;;;;5010062;28;20042;-80
2023/04/22 05:10:26;;;;;;;6.40;3.13;;;9.10;99.90;;;;;;5008604;28;20042;-79
2023/04/22 05:12:51;;;;;;;7.40;3.60;;;9.20;99.90;;;;;;5008393;28;20157;-79
2023/04/22 05:15:17;;;;;;;9.05;3.67;;;9.30;99.90;;;;;;5004436;28;20472;-79
2023/04/22 05:17:43;;;;;;;8.02;3.67;;;9.30;99.90;;;;;;5007830;28;20054;-78
2023/04/22 05:20:09;;;;;;;7.13;3.65;;;9.40;99.90;;;;;;5007863;28;20049;-79
2023/04/22 05:22:40;;;;;;;7.15;3.35;;;9.50;99.90;;;;;;5005791;28;20034;-79
2023/04/22 05:25:06;;;;;;;9.82;3.88;;;9.50;99.90;;;;;;5008800;28;20050;-79
2023/04/22 05:27:32;;;;;;;6.68;4.40;;;9.60;99.90;;;;;;4995337;28;20041;-79
2023/04/22 05:29:57;;;;;;;9.60;3.63;;;9.70;99.90;;;;;;5002044;28;20034;-79
2023/04/22 05:32:23;;;;;;;7.75;3.85;;;9.80;99.90;;;;;;5007984;28;20037;-79
2023/04/22 05:34:48;;;;;;;7.00;3.65;;;9.80;99.90;;;;;;5006107;28;20073;-79
2023/04/22 05:37:14;;;;;;;6.68;3.65;;;9.80;99.90;;;;;;5006177;28;20530;-79
2023/04/22 05:39:40;;;;;;;6.85;3.72;;;9.90;99.90;;;;;;4992719;28;20460;-79
2023/04/22 05:42:05;;;;;;;7.25;3.88;;;9.90;99.90;;;;;;5003805;28;20045;-79
2023/04/22 05:44:31;;;;;;;7.35;3.83;;;10.00;99.90;;;;;;5007843;28;20044;-79
2023/04/22 05:46:56;;;;;;;6.97;3.78;;;10.00;99.90;;;;;;5004020;28;20034;-78
2023/04/22 05:49:22;;;;;;;6.53;3.60;;;10.00;99.90;;;;;;5038843;28;20041;-79
2023/04/22 05:51:49;;;;;;;9.40;4.05;;;10.10;99.90;;;;;;5001986;28;20049;-79
2023/04/22 05:54:15;;;;;;;8.10;4.10;;;10.10;99.90;;;;;;4998607;28;20037;-80
2023/04/22 05:56:40;;;;;;;7.00;3.65;;;10.10;99.90;;;;;;5019787;28;20195;-79
2023/04/22 05:59:06;;;;;;;7.75;3.72;;;10.20;99.90;;;;;;5040177;28;20046;-79
2023/04/22 06:01:32;;;;;;;6.18;3.63;;;10.20;99.90;;;;;;5007719;28;20038;-79
2023/04/22 06:03:57;;;;;;;7.47;4.13;;;10.20;99.90;;;;;;5002706;28;20113;-79
2023/04/22 06:06:23;;;;;;;7.20;4.05;;;10.30;99.90;;;;;;4998391;28;20431;-79
2023/04/22 06:08:49;;;;;;;9.80;3.95;;;10.30;99.90;;;;;;5004876;28;20507;-79
2023/04/22 06:11:14;;;;;;;7.60;3.92;;;10.40;99.90;;;;;;5005939;28;20034;-79
2023/04/22 06:13:40;;;;;;;7.22;4.10;;;10.40;99.90;;;;;;4992713;28;20487;-79
2023/04/22 06:16:06;;;;;;;8.52;3.75;;;10.40;99.90;;;;;;5006099;28;20046;-80
2023/04/22 06:18:31;;;;;;;8.63;4.22;;;10.40;99.90;;;;;;5003827;28;20042;-79
2023/04/22 06:20:57;;;;;;;9.30;4.32;;;10.50;99.90;;;;;;4997503;28;20077;-79
2023/04/22 06:23:23;;;;;;;10.07;4.35;;;10.50;99.90;;;;;;4996237;28;20034;-79
2023/04/22 06:25:48;;;;;;;9.93;4.30;;;10.50;99.90;;;;;;5001923;28;20041;-79
2023/04/22 06:28:14;;;;;;;8.77;4.15;;;10.60;99.90;;;;;;4999535;28;20038;-78
2023/04/22 06:30:40;;;;;;;9.05;4.65;;;10.60;99.90;;;;;;5005573;28;20052;-78
2023/04/22 06:33:05;;;;;;;8.65;4.03;;;10.60;99.90;;;;;;5003014;28;20046;-79
2023/04/22 06:35:31;;;;;;;10.15;4.65;;;10.60;99.90;;;;;;4997998;28;20080;-78
2023/04/22 06:37:57;;;;;;;10.25;5.10;;;10.70;99.90;;;;;;5000826;28;20091;-79
2023/04/22 06:40:22;;;;;;;6.93;3.95;;;10.70;99.90;;;;;;5005216;28;20046;-79
2023/04/22 06:42:48;;;;;;;8.40;4.13;;;10.70;99.90;;;;;;5036265;28;20042;-79
2023/04/22 06:45:13;;;;;;;7.82;4.25;;;10.80;99.90;;;;;;5002817;28;20038;-79
2023/04/22 06:47:39;;;;;;;7.50;4.05;;;10.80;99.90;;;;;;5018896;28;20121;-78
2023/04/22 06:50:07;;;;;;;7.32;4.38;;;10.80;99.90;;;;;;4997112;28;20050;-79
2023/04/22 06:52:32;;;;;;;9.55;4.90;;;10.80;99.90;;;;;;5003472;28;20034;-78
2023/04/22 06:54:58;;;;;;;9.70;4.93;;;10.80;99.90;;;;;;5005468;28;20070;-78
2023/04/22 06:57:24;;;;;;;8.30;4.25;;;10.90;99.90;;;;;;4999198;28;20384;-78
2023/04/22 06:59:49;;;;;;;8.88;4.28;;;10.90;99.90;;;;;;4995937;28;20042;-78
2023/04/22 07:02:15;;;;;;;9.95;4.68;;;10.90;99.90;;;;;;4992605;28;20039;-78
2023/04/22 07:04:41;;;;;;;11.45;4.35;;;11.00;99.90;;;;;;4993735;28;20414;-78
2023/04/22 07:07:06;;;;;;;11.13;4.40;;;11.00;99.90;;;;;;5036911;28;20118;-79
2023/04/22 07:09:32;;;;;;;8.65;4.18;;;11.00;99.90;;;;;;5001149;28;20104;-79
2023/04/22 07:11:58;;;;;;;8.07;4.05;;;11.10;99.90;;;;;;5002635;28;20050;-78
2023/04/22 07:14:27;;;;;;;8.57;4.00;;;11.10;99.90;;;;;;5000935;28;20038;-78
2023/04/22 07:16:53;;;;;;;9.05;4.03;;;11.10;99.90;;;;;;5010849;28;20506;-79
2023/04/22 07:19:19;;;;;;;10.13;4.72;;;11.10;99.90;;;;;;5010751;28;20237;-79
2023/04/22 07:21:45;;;;;;;7.43;4.03;;;11.20;99.90;;;;;;5009391;28;20045;-79
2023/04/22 07:24:12;;;;;;;10.00;5.30;;;11.20;99.90;;;;;;5007099;28;20376;-79
2023/04/22 07:26:39;;;;;;;10.23;4.93;;;11.30;99.90;;;;;;5009260;28;20306;-79
2023/04/22 07:29:05;;;;;;;8.70;4.43;;;11.30;99.90;;;;;;5012409;28;20120;-79
2023/04/22 07:31:32;;;;;;;6.40;3.78;;;11.30;99.90;;;;;;5006645;28;20144;-79
2023/04/22 07:33:58;;;;;;;8.93;4.28;;;11.40;99.90;;;;;;5010242;28;20049;-79
2023/04/22 07:36:23;;;;;;;7.40;3.90;;;11.40;99.90;;;;;;5010903;28;20046;-79
2023/04/22 07:38:49;;;;;;;10.68;4.13;;;11.50;99.90;;;;;;5024219;28;20046;-79
2023/04/22 07:41:15;;;;;;;8.10;4.25;;;11.50;99.90;;;;;;5004523;28;20050;-78
2023/04/22 07:43:40;;;;;;;8.60;4.75;;;11.60;99.90;;;;;;5007925;28;20259;-80
2023/04/22 07:46:06;;;;;;;9.05;4.55;;;11.60;99.90;;;;;;5007629;28;20045;-80
2023/04/22 07:48:31;;;;;;;10.00;4.97;;;11.70;99.90;;;;;;5030695;28;20501;-79
2023/04/22 07:50:58;;;;;;;11.27;5.38;;;11.70;99.90;;;;;;4992314;28;20070;-78
2023/04/22 07:53:24;;;;;;;9.80;5.05;;;11.80;99.90;;;;;;5028931;28;20100;-79
2023/04/22 07:55:49;;;;;;;10.32;5.00;;;11.90;99.90;;;;;;5018333;28;20484;-79
2023/04/22 07:58:16;;;;;;;8.73;4.60;;;11.90;99.90;;;;;;4997557;28;20042;-80
2023/04/22 08:00:41;;;;;;;10.32;5.00;;;11.90;99.90;;;;;;5009343;28;20095;-79
2023/04/22 08:03:07;;;;;;;9.07;4.82;;;12.00;99.90;;;;;;5041790;28;20034;-79
2023/04/22 08:05:32;;;;;;;8.85;4.55;;;12.00;99.90;;;;;;5027364;28;20046;-79
2023/04/22 08:07:58;;;;;;;11.07;4.78;;;12.10;99.90;;;;;;5018464;28;20117;-80
2023/04/22 08:10:24;;;;;;;8.85;4.70;;;12.20;99.90;;;;;;5004421;28;20042;-79
2023/04/22 08:12:49;;;;;;;11.27;5.68;;;12.20;99.90;;;;;;4991541;28;20073;-79
2023/04/22 08:15:15;;;;;;;9.88;5.00;;;12.30;99.90;;;;;;5001741;28;20034;-80
2023/04/22 08:17:41;;;;;;;8.60;4.95;;;12.40;99.90;;;;;;5005167;28;20037;-78
2023/04/22 08:20:07;;;;;;;10.13;5.38;;;12.50;99.90;;;;;;5006867;28;20514;-79
2023/04/22 08:22:34;;;;;;;10.43;4.70;;;12.50;99.90;;;;;;5004456;28;20053;-79
2023/04/22 08:25:00;;;;;;;8.98;4.63;;;12.60;99.90;;;;;;5002176;28;20034;-79
2023/04/22 08:27:25;;;;;;;9.50;4.60;;;12.70;99.90;;;;;;4999491;28;20089;-78
2023/04/22 08:29:51;;;;;;;9.07;4.60;;;12.70;99.90;;;;;;5003931;28;20459;-78
2023/04/22 08:32:18;;;;;;;7.35;4.13;;;12.80;99.90;;;;;;5033255;28;20134;-78
2023/04/22 08:34:45;;;;;;;7.93;4.03;;;12.80;99.90;;;;;;5002005;28;20463;-79
2023/04/22 08:37:10;;;;;;;9.60;4.10;;;12.90;99.90;;;;;;5005787;28;20068;-83
2023/04/22 08:39:36;;;;;;;8.48;4.55;;;13.00;99.90;;;;;;5005863;28;20029;-78
2023/04/22 08:42:02;;;;;;;9.77;4.75;;;13.00;99.90;;;;;;5006844;28;20121;-78
2023/04/22 08:44:28;;;;;;;9.77;4.03;;;13.10;99.90;;;;;;5033898;28;20486;-78
2023/04/22 08:46:55;;;;;;;8.60;4.35;;;13.10;99.90;;;;;;5004132;28;20214;-77
2023/04/22 08:49:24;;;;;;;8.85;4.57;;;13.20;99.90;;;;;;5004940;28;20115;-78
2023/04/22 08:51:49;;;;;;;10.55;4.47;;;13.30;99.90;;;;;;5006870;28;20269;-77
2023/04/22 08:54:15;;;;;;;11.32;4.70;;;13.30;99.90;;;;;;5007635;28;20408;-78
2023/04/22 08:56:43;;;;;;;8.90;4.35;;;13.30;99.90;;;;;;5008896;28;20122;-78
2023/04/22 08:59:12;;;;;;;7.68;3.85;;;13.30;99.90;;;;;;5008927;28;20038;-78
2023/04/22 09:01:39;;;;;;;7.88;4.05;;;13.40;99.90;;;;;;5000164;28;20087;-78
2023/04/22 09:04:09;;;;;;;8.00;3.72;;;13.40;99.90;;;;;;5010927;28;20039;-78
2023/04/22 09:06:34;;;;;;;7.30;3.85;;;13.40;99.90;;;;;;5002226;28;20030;-78
2023/04/22 09:09:00;;;;;;;6.45;3.53;;;13.60;99.90;;;;;;5005847;28;20042;-78
2023/04/22 09:11:32;;;;;;;8.00;3.65;;;13.60;99.90;;;;;;5005939;28;20120;-78
2023/04/22 09:13:58;;;;;;;6.47;3.70;;;13.70;99.90;;;;;;5009046;28;20125;-78
2023/04/22 09:16:23;;;;;;;10.10;4.03;;;13.70;99.90;;;;;;5003841;28;20192;-79
2023/04/22 09:18:50;;;;;;;9.52;4.57;;;13.70;99.90;;;;;;5028245;28;20459;-78
2023/04/22 09:21:15;;;;;;;9.20;3.90;;;13.70;99.90;;;;;;5010046;28;20057;-79
2023/04/22 09:23:49;;;;;;;7.10;3.42;;;13.80;99.90;;;;;;5009254;28;20471;-78
2023/04/22 09:26:17;;;;;;;9.57;3.80;;;13.90;99.90;;;;;;5011642;28;20442;-78
2023/04/22 09:28:57;;;;;;;7.53;3.97;;;13.90;99.90;;;;;;4997186;28;20025;-79
2023/04/22 09:31:23;;;;;;;9.13;3.80;;;14.10;99.90;;;;;;4995337;28;20050;-80
2023/04/22 09:33:51;;;;;;;5.45;3.47;;;14.10;99.90;;;;;;4997824;28;20487;-80
2023/04/22 09:36:20;;;;;;;7.18;3.53;;;14.20;99.90;;;;;;5019587;28;20042;-77
2023/04/22 09:38:53;;;;;;;6.57;3.78;;;14.30;99.90;;;;;;4993593;28;20093;-79
2023/04/22 09:41:26;;;;;;;8.60;4.15;;;14.30;99.90;;;;;;5002976;28;20531;-80
2023/04/22 09:43:55;;;;;;;7.45;3.92;;;14.40;99.90;;;;;;5028943;28;20121;-82
2023/04/22 09:46:23;;;;;;;6.93;3.53;;;14.40;99.90;;;;;;4986996;28;20207;-81
2023/04/22 09:48:49;;;;;;;7.78;4.10;;;14.60;99.90;;;;;;4997609;28;20079;-81
2023/04/22 09:51:16;;;;;;;7.95;3.40;;;14.60;99.90;;;;;;4999829;28;20106;-81
2023/04/22 09:53:42;;;;;;;7.15;3.55;;;14.70;99.90;;;;;;4999209;28;20034;-81
2023/04/22 09:56:08;;;;;;;4.97;2.58;;;14.70;99.90;;;;;;4990048;28;20164;-81
2023/04/22 09:58:38;;;;;;;5.15;3.08;;;14.80;99.90;;;;;;4995389;28;20045;-81
2023/04/22 10:01:04;;;;;;;4.80;2.92;;;14.90;99.90;;;;;;4995049;28;20038;-79
2023/04/22 10:03:30;;;;;;;7.22;3.33;;;15.00;99.90;;;;;;4997565;28;20110;-81
2023/04/22 10:05:57;;;;;;;6.35;3.38;;;15.10;99.90;;;;;;4993591;28;20081;-81
2023/04/22 10:08:23;;;;;;;7.80;3.83;;;15.10;99.90;;;;;;4994487;28;20053;-81
2023/04/22 10:10:49;;;;;;;7.20;3.83;;;15.10;99.90;;;;;;5000095;28;20033;-80
2023/04/22 10:13:14;;;;;;;5.82;3.33;;;15.10;99.90;;;;;;4987849;28;20508;-80
2023/04/22 10:15:44;;;;;;;6.30;3.38;;;15.20;99.90;;;;;;4994668;28;20125;-79
2023/04/22 10:18:13;;;;;;;7.22;3.70;;;15.10;99.90;;;;;;4998766;28;20699;-79
2023/04/22 10:20:40;;;;;;;5.55;3.50;;;15.20;99.90;;;;;;5001717;28;20049;-79
2023/04/22 10:23:14;;;;;;;7.70;3.30;;;15.30;99.90;;;;;;4999709;28;20088;-80
2023/04/22 10:25:40;;;;;;;9.32;4.05;;;15.30;99.90;;;;;;5006173;28;20091;-80
2023/04/22 10:28:08;;;;;;;6.03;3.40;;;15.30;99.90;;;;;;5013778;28;20462;-79
2023/04/22 10:30:37;;;;;;;7.32;4.00;;;15.30;99.90;;;;;;5003835;28;20042;-80
2023/04/22 10:33:27;;;;;;;5.18;3.42;;;15.30;99.90;;;;;;4998952;28;20041;-82
2023/04/22 10:36:14;;;;;;;7.43;3.47;;;15.40;99.90;;;;;;4978631;28;20061;-81
2023/04/22 10:39:00;;;;;;;6.82;3.30;;;15.40;99.90;;;;;;5006498;28;20045;-80
2023/04/22 10:41:32;;;;;;;5.90;3.03;;;15.40;99.90;;;;;;5005809;28;20042;-80
2023/04/22 10:44:05;;;;;;;5.20;2.90;;;15.50;99.90;;;;;;5036274;28;20038;-90
2023/04/22 10:46:53;;;;;;;5.68;3.08;;;15.60;99.90;;;;;;5003921;28;20042;-80
2023/04/22 10:49:24;;;;;;;6.38;3.22;;;15.60;99.90;;;;;;5014367;28;20285;-79
2023/04/22 10:51:52;;;;;;;8.82;3.28;;;15.70;99.90;;;;;;5035299;28;20045;-77
2023/04/22 10:54:27;;;;;;;5.18;2.83;;;15.80;99.90;;;;;;5021304;28;20042;-85
2023/04/22 10:57:08;;;;;;;4.38;2.33;;;15.70;99.90;;;;;;5016951;28;20128;-80
2023/04/22 10:59:56;;;;;;;5.40;3.05;;;15.70;99.90;;;;;;5011781;28;20622;-80
2023/04/22 11:02:23;;;;;;;6.13;3.03;;;15.80;99.90;;;;;;5035730;28;20173;-80
2023/04/22 11:04:51;;;;;;;6.32;3.03;;;15.80;99.90;;;;;;5013879;28;20066;-80
2023/04/22 11:07:21;;;;;;;4.90;2.80;;;15.90;99.90;;;;;;5012501;28;20403;-81
2023/04/22 11:09:50;;;;;;;5.35;2.78;;;15.90;99.90;;;;;;5056636;28;20040;-80
2023/04/22 11:12:34;;;;;;;6.05;2.97;;;16.00;99.90;;;;;;5022571;28;20053;-81
2023/04/22 11:15:13;;;;;;;4.47;2.53;;;16.00;99.90;;;;;;5017429;28;20045;-79
2023/04/22 11:17:42;;;;;;;5.07;3.15;;;16.00;99.90;;;;;;5006165;28;20486;-79
2023/04/22 11:20:11;;;;;;;5.72;2.60;;;16.10;99.90;;;;;;5004577;28;20256;-79
2023/04/22 11:22:40;;;;;;;6.90;3.42;;;16.20;99.90;;;;;;5020989;28;20441;-80
2023/04/22 11:25:08;;;;;;;6.05;3.35;;;16.30;99.90;;;;;;5023174;28;20488;-80
2023/04/22 11:27:34;;;;;;;5.68;3.13;;;16.40;99.90;;;;;;5014830;28;20042;-79
2023/04/22 11:30:06;;;;;;;7.72;3.55;;;16.40;99.90;;;;;;5013326;28;20104;-81
2023/04/22 11:32:33;;;;;;;7.75;3.53;;;16.50;99.90;;;;;;5014862;28;20038;-80
2023/04/22 11:35:03;;;;;;;4.72;2.72;;;16.50;99.90;;;;;;5014380;28;20076;-80
2023/04/22 11:37:29;;;;;;;4.93;2.70;;;16.50;99.90;;;;;;5013535;28;20038;-80
2023/04/22 11:40:02;;;;;;;6.30;3.10;;;16.50;99.90;;;;;;5016291;28;20038;-80
2023/04/22 11:42:28;;;;;;;6.20;3.03;;;16.50;99.90;;;;;;5009085;28;20190;-80
2023/04/22 11:44:54;;;;;;;6.55;3.42;;;16.50;99.90;;;;;;5019785;28;20041;-80
2023/04/22 11:47:19;;;;;;;9.00;3.45;;;16.60;99.90;;;;;;5016987;28;20033;-80
2023/04/22 11:50:00;;;;;;;7.30;3.38;;;16.70;99.90;;;;;;5022043;28;20048;-80
2023/04/22 11:52:44;;;;;;;6.60;4.00;;;16.80;99.90;;;;;;5014115;28;20494;-80
2023/04/22 11:55:34;;;;;;;5.78;3.33;;;16.90;99.90;;;;;;5015675;28;20502;-80
2023/04/22 11:58:07;;;;;;;6.22;3.33;;;16.90;99.90;;;;;;5006453;28;20144;-79
2023/04/22 12:00:44;;;;;;;5.05;3.10;;;17.00;99.90;;;;;;5024477;28;20061;-80
2023/04/22 12:03:21;;;;;;;5.18;2.95;;;16.90;99.90;;;;;;5018324;28;20045;-80
2023/04/22 12:05:50;;;;;;;5.90;2.70;;;16.90;99.90;;;;;;5023336;28;20423;-80
2023/04/22 12:08:21;;;;;;;7.25;3.47;;;16.80;99.90;;;;;;5012151;28;20118;-80
2023/04/22 12:10:51;;;;;;;6.50;3.70;;;16.90;99.90;;;;;;5034822;28;20053;-80
2023/04/22 12:13:29;;;;;;;7.28;3.42;;;16.90;99.90;;;;;;5004106;28;20046;-80
2023/04/22 12:15:57;;;;;;;6.75;3.70;;;16.90;99.90;;;;;;5017712;28;20033;-80
2023/04/22 12:18:47;;;;;;;7.55;3.53;;;17.00;99.90;;;;;;5023002;28;20037;-80
2023/04/22 12:21:15;;;;;;;7.78;3.67;;;17.00;99.90;;;;;;5022343;28;20126;-80
2023/04/22 12:23:41;;;;;;;6.43;3.22;;;17.00;99.90;;;;;;5022791;28;20124;-80
2023/04/22 12:26:07;;;;;;;7.70;3.30;;;17.00;99.90;;;;;;5013984;28;20037;-80
2023/04/22 12:28:32;;;;;;;7.80;3.95;;;17.00;99.90;;;;;;5015968;28;20400;-79
2023/04/22 12:30:58;;;;;;;8.88;3.72;;;17.10;99.90;;;;;;5016207;28;20057;-79
2023/04/22 12:33:24;;;;;;;8.02;3.67;;;17.10;99.90;;;;;;5020533;28;20064;-80
2023/04/22 12:35:51;;;;;;;11.35;3.88;;;17.10;99.90;;;;;;5022357;28;20048;-80
2023/04/22 12:38:17;;;;;;;9.45;3.70;;;17.20;99.90;;;;;;5014691;28;20116;-80
2023/04/22 12:40:43;;;;;;;9.30;3.90;;;17.20;99.90;;;;;;5013247;28;20134;-80
2023/04/22 12:43:08;;;;;;;10.18;5.32;;;17.20;99.90;;;;;;5016739;28;20635;-79
2023/04/22 12:45:34;;;;;;;9.57;4.60;;;17.20;99.90;;;;;;5024261;28;20052;-79
2023/04/22 12:48:00;;;;;;;10.63;4.93;;;17.10;99.90;;;;;;5021356;28;20117;-79